Time;durP1;ratioP1;P1;durP2;ratioP2;P2;SDS_P1;SDS_P2;PMS_P1;PMS_P2;Temp;Humidity;BMP_temperature;BMP_pressure;BME280_temperature;BME280_humidity;BME280_pressure;Samples;Min_cycle;Max_cycle;Signal;HPM_P1;HPM_P2
2024/03/04 00:00:16;;;;;;;;;;;;;;;16.05;47.70;100701.03;4959859;29;1136;-44
2024/03/04 00:02:42;;;;;;;;;;;;;;;15.76;47.19;100705.63;4959850;29;1973;-44
2024/03/04 00:05:08;;;;;;;;;;;;;;;15.55;46.55;100698.19;4960012;29;2675;-43
2024/03/04 00:07:33;;;;;;;;;;;;;;;17.11;47.29;100706.63;4959867;29;1205;-44
2024/03/04 00:09:59;;;;;;;;;;;;;;;16.53;47.75;100708.22;4959950;28;1061;-46
2024/03/04 00:12:25;;;;;;;;;;;;;;;15.95;47.58;100706.13;4954590;29;1047;-45
2024/03/04 00:14:50;;;;;;;;;;;;;;;15.67;47.09;100699.16;4955191;29;1231;-42
2024/03/04 00:17:16;;;;;;;;;;;;;;;16.33;48.03;100699.03;4959565;29;1092;-45
2024/03/04 00:19:42;;;;;;;;;;;;;;;17.11;46.75;100694.22;4959585;28;1025;-42
2024/03/04 00:22:07;;;;;;;;;;;;;;;15.94;47.99;100688.50;4959968;29;1977;-41
2024/03/04 00:24:33;;;;;;;;;;;;;;;15.70;47.11;100689.28;4954619;29;1037;-47
2024/03/04 00:26:58;;;;;;;;;;;;;;;15.62;46.57;100689.81;4957568;29;1882;-44
2024/03/04 00:29:24;;;;;;;;;;;;;;;16.43;47.89;100688.59;4959441;29;1066;-41
2024/03/04 00:31:50;;;;;;;;;;;;;;;16.47;47.57;100687.41;4959540;29;1007;-43
2024/03/04 00:34:16;;;;;;;;;;;;;;;15.76;47.70;100676.44;4946698;29;1117;-44
2024/03/04 00:36:41;;;;;;;;;;;;;;;15.62;46.92;100684.50;4954976;29;1205;-46
2024/03/04 00:39:09;;;;;;;;;;;;;;;15.42;46.33;100677.00;4959647;29;1161;-44
2024/03/04 00:41:35;;;;;;;;;;;;;;;15.64;47.78;100680.81;4959418;29;1975;-41
2024/03/04 00:44:00;;;;;;;;;;;;;;;17.44;46.44;100673.09;4959429;29;1073;-46
2024/03/04 00:46:26;;;;;;;;;;;;;;;15.97;47.92;100680.31;4959397;28;1014;-41
2024/03/04 00:48:51;;;;;;;;;;;;;;;15.70;47.32;100671.56;4959010;29;1154;-42
2024/03/04 00:51:17;;;;;;;;;;;;;;;15.93;48.29;100678.84;4959430;28;1146;-43
2024/03/04 00:53:46;;;;;;;;;;;;;;;16.87;46.97;100670.28;4946027;29;1224;-46
2024/03/04 00:56:14;;;;;;;;;;;;;;;15.82;47.75;100671.63;4946797;29;1240;-43
2024/03/04 00:58:43;;;;;;;;;;;;;;;15.56;47.42;100667.25;4926335;29;1062;-43
2024/03/04 01:01:08;;;;;;;;;;;;;;;17.44;46.58;100667.78;4959076;29;1906;-43
2024/03/04 01:03:34;;;;;;;;;;;;;;;16.61;47.54;100671.31;4959213;29;1138;-47
2024/03/04 01:05:59;;;;;;;;;;;;;;;15.93;47.63;100666.44;4958812;29;1140;-44
2024/03/04 01:08:25;;;;;;;;;;;;;;;15.89;48.51;100673.75;4958574;29;1038;-44
2024/03/04 01:10:53;;;;;;;;;;;;;;;17.15;46.66;100667.38;4946185;29;1181;-43
2024/03/04 01:13:19;;;;;;;;;;;;;;;16.06;47.55;100671.75;4949862;29;1130;-40
2024/03/04 01:15:47;;;;;;;;;;;;;;;15.74;47.09;100669.53;4958518;29;1030;-40
2024/03/04 01:18:13;;;;;;;;;;;;;;;15.59;46.40;100669.69;4958873;29;1068;-42
2024/03/04 01:20:39;;;;;;;;;;;;;;;17.13;47.18;100671.00;4958759;29;1970;-43
2024/03/04 01:23:05;;;;;;;;;;;;;;;16.85;47.32;100670.41;4959170;29;1041;-45
2024/03/04 01:25:31;;;;;;;;;;;;;;;16.05;47.77;100674.50;4958748;29;890;-41
2024/03/04 01:27:57;;;;;;;;;;;;;;;15.72;47.55;100674.97;4958278;29;1029;-44
2024/03/04 01:30:24;;;;;;;;;;;;;;;15.52;46.57;100677.22;4952130;28;1114;-40
2024/03/04 01:32:50;;;;;;;;;;;;;;;15.74;47.34;100675.69;4953075;29;1046;-41
2024/03/04 01:35:16;;;;;;;;;;;;;;;16.95;47.01;100677.69;4958284;29;1482;-41
2024/03/04 01:37:42;;;;;;;;;;;;;;;15.79;47.95;100680.69;4958267;29;1137;-42
2024/03/04 01:40:08;;;;;;;;;;;;;;;15.66;46.84;100681.53;4958184;29;1070;-43
2024/03/04 01:42:33;;;;;;;;;;;;;;;15.48;46.60;100683.66;4958534;29;1984;-43
2024/03/04 01:44:59;;;;;;;;;;;;;;;17.18;47.01;100678.63;4958550;29;1041;-42
2024/03/04 01:47:25;;;;;;;;;;;;;;;16.30;47.69;100680.69;4958296;29;1021;-42
2024/03/04 01:49:53;;;;;;;;;;;;;;;15.81;47.67;100680.56;4935118;29;1074;-43
2024/03/04 01:52:22;;;;;;;;;;;;;;;15.56;46.68;100683.16;4958395;29;1138;-43
2024/03/04 01:54:48;;;;;;;;;;;;;;;16.89;47.53;100677.19;4957773;29;1215;-44
2024/03/04 01:57:17;;;;;;;;;;;;;;;16.88;47.20;100680.81;4957858;28;1077;-43
2024/03/04 01:59:43;;;;;;;;;;;;;;;16.03;47.79;100679.94;4962762;28;1229;-43
2024/03/04 02:02:10;;;;;;;;;;;;;;;15.58;47.09;100683.88;4934535;29;2081;-45
2024/03/04 02:04:38;;;;;;;;;;;;;;;15.45;46.82;100685.69;4935208;29;1098;-46
2024/03/04 02:07:04;;;;;;;;;;;;;;;17.35;46.79;100687.94;4964461;29;1140;-42
2024/03/04 02:09:29;;;;;;;;;;;;;;;16.34;48.17;100690.97;4964046;28;1116;-46
2024/03/04 02:11:55;;;;;;;;;;;;;;;15.82;47.79;100688.41;4947250;29;1217;-43
2024/03/04 02:14:20;;;;;;;;;;;;;;;15.55;47.19;100692.03;4940430;29;1011;-42
2024/03/04 02:16:46;;;;;;;;;;;;;;;17.00;47.54;100687.00;4964322;29;1053;-47
2024/03/04 02:19:13;;;;;;;;;;;;;;;16.22;47.80;100684.75;4964480;29;1165;-45
2024/03/04 02:21:39;;;;;;;;;;;;;;;15.78;47.26;100679.81;4964188;29;1983;-44
2024/03/04 02:24:05;;;;;;;;;;;;;;;15.62;46.85;100682.72;4963010;29;1120;-43
2024/03/04 02:26:32;;;;;;;;;;;;;;;15.60;47.21;100678.50;4963907;29;913;-44
2024/03/04 02:29:00;;;;;;;;;;;;;;;17.42;46.51;100680.34;4964235;29;1225;-44
2024/03/04 02:31:25;;;;;;;;;;;;;;;16.39;47.75;100677.34;4963952;28;1173;-42
2024/03/04 02:33:52;;;;;;;;;;;;;;;15.81;47.61;100681.41;4963958;29;1046;-42
2024/03/04 02:36:17;;;;;;;;;;;;;;;15.64;46.83;100675.50;4950277;29;1212;-44
2024/03/04 02:38:43;;;;;;;;;;;;;;;15.42;46.32;100670.84;4964021;28;914;-44
2024/03/04 02:41:09;;;;;;;;;;;;;;;16.91;47.43;100682.41;4951049;29;1923;-42
2024/03/04 02:43:35;;;;;;;;;;;;;;;16.60;47.56;100684.69;4947016;29;1077;-41
2024/03/04 02:46:00;;;;;;;;;;;;;;;15.82;48.30;100682.25;4963697;29;1189;-46
2024/03/04 02:48:26;;;;;;;;;;;;;;;15.66;47.05;100688.66;4963896;28;1061;-46
2024/03/04 02:50:51;;;;;;;;;;;;;;;15.41;46.59;100687.72;4960666;28;1157;-42
2024/03/04 02:53:17;;;;;;;;;;;;;;;16.97;47.51;100686.38;4963219;29;1124;-45
2024/03/04 02:55:43;;;;;;;;;;;;;;;16.73;47.46;100677.50;4963780;29;1085;-44
2024/03/04 02:58:08;;;;;;;;;;;;;;;15.91;47.59;100692.22;4964045;29;1054;-46
2024/03/04 03:00:34;;;;;;;;;;;;;;;16.64;48.32;100688.81;4963477;28;1041;-42
2024/03/04 03:03:00;;;;;;;;;;;;;;;16.77;47.24;100692.25;4938136;29;1975;-45
2024/03/04 03:05:26;;;;;;;;;;;;;;;15.99;47.55;100702.31;4963726;28;1049;-42
2024/03/04 03:07:51;;;;;;;;;;;;;;;15.80;46.61;100700.94;4963789;29;1033;-42
2024/03/04 03:10:17;;;;;;;;;;;;;;;16.26;47.73;100703.94;4960178;28;1081;-42
2024/03/04 03:12:42;;;;;;;;;;;;;;;17.38;46.35;100702.84;4953355;29;1157;-45
2024/03/04 03:15:08;;;;;;;;;;;;;;;16.06;48.06;100703.59;4957363;29;896;-42
2024/03/04 03:17:37;;;;;;;;;;;;;;;15.77;47.04;100701.16;4961000;29;1135;-41
2024/03/04 03:20:12;;;;;;;;;;;;;;;15.99;48.02;100705.81;4960630;29;1165;-43
2024/03/04 03:22:38;;;;;;;;;;;;;;;16.63;47.28;100705.72;4959360;29;1975;-44
2024/03/04 03:25:04;;;;;;;;;;;;;;;15.86;47.40;100704.97;4957495;29;1185;-45
2024/03/04 03:27:30;;;;;;;;;;;;;;;15.58;47.42;100699.78;4959595;29;1640;-44
2024/03/04 03:29:55;;;;;;;;;;;;;;;17.49;46.28;100699.34;4960223;29;1057;-42
2024/03/04 03:32:21;;;;;;;;;;;;;;;16.22;47.87;100705.13;4960105;29;1217;-40
2024/03/04 03:34:46;;;;;;;;;;;;;;;15.81;47.46;100702.66;4960159;29;1082;-41
2024/03/04 03:37:12;;;;;;;;;;;;;;;15.65;46.59;100701.06;4960272;29;1101;-44
2024/03/04 03:39:38;;;;;;;;;;;;;;;16.35;47.81;100697.13;4947440;29;882;-45
2024/03/04 03:42:07;;;;;;;;;;;;;;;16.48;47.76;100710.34;4960281;29;1914;-44
2024/03/04 03:44:33;;;;;;;;;;;;;;;15.78;47.68;100705.50;4960402;29;1003;-40
2024/03/04 03:46:58;;;;;;;;;;;;;;;15.53;47.08;100705.41;4960379;29;1073;-40
2024/03/04 03:49:24;;;;;;;;;;;;;;;16.47;47.72;100706.84;4959875;29;1085;-41
2024/03/04 03:51:49;;;;;;;;;;;;;;;16.48;47.31;100707.69;4960198;29;1144;-45
2024/03/04 03:54:15;;;;;;;;;;;;;;;15.71;47.58;100714.84;4959364;29;1170;-44
2024/03/04 03:56:41;;;;;;;;;;;;;;;16.28;48.60;100715.31;4960455;29;1148;-43
2024/03/04 03:59:06;;;;;;;;;;;;;;;16.55;47.39;100724.84;4960226;29;1104;-42
2024/03/04 04:01:32;;;;;;;;;;;;;;;15.74;47.96;100709.31;4959419;29;1910;-43
2024/03/04 04:03:57;;;;;;;;;;;;;;;17.46;46.47;100720.84;4959937;29;1006;-44
2024/03/04 04:06:23;;;;;;;;;;;;;;;16.24;47.72;100733.25;4959578;29;1037;-41
2024/03/04 04:08:48;;;;;;;;;;;;;;;15.81;47.23;100729.16;4959786;29;1129;-42
2024/03/04 04:11:14;;;;;;;;;;;;;;;15.62;46.77;100732.22;4959783;29;1169;-43
2024/03/04 04:13:40;;;;;;;;;;;;;;;15.60;47.46;100727.03;4958120;29;1069;-43
2024/03/04 04:16:05;;;;;;;;;;;;;;;17.50;46.24;100725.81;4952513;29;1245;-45
2024/03/04 04:18:31;;;;;;;;;;;;;;;16.44;47.44;100744.25;4959950;29;1006;-43
2024/03/04 04:20:57;;;;;;;;;;;;;;;15.82;47.51;100736.16;4958905;28;1902;-43
2024/03/04 04:23:22;;;;;;;;;;;;;;;16.29;48.08;100735.56;4959545;29;1057;-45
2024/03/04 04:25:50;;;;;;;;;;;;;;;16.67;46.97;100732.88;4956151;29;1145;-43
2024/03/04 04:28:15;;;;;;;;;;;;;;;15.97;47.62;100738.69;4955308;29;1172;-42
2024/03/04 04:30:43;;;;;;;;;;;;;;;15.74;46.50;100734.06;4959438;29;1116;-44
2024/03/04 04:33:08;;;;;;;;;;;;;;;16.75;47.66;100739.31;4959349;29;1084;-41
2024/03/04 04:35:34;;;;;;;;;;;;;;;15.92;47.56;100736.34;4951048;29;1150;-39
2024/03/04 04:38:00;;;;;;;;;;;;;;;15.67;47.76;100732.78;4953988;29;1059;-42
2024/03/04 04:40:26;;;;;;;;;;;;;;;17.68;45.67;100738.66;4959333;29;1120;-40
2024/03/04 04:42:51;;;;;;;;;;;;;;;16.40;47.54;100743.59;4958487;29;1911;-42
2024/03/04 04:45:17;;;;;;;;;;;;;;;15.91;47.10;100735.50;4958778;29;1284;-43
2024/03/04 04:47:43;;;;;;;;;;;;;;;15.95;47.91;100743.28;4959326;29;1217;-42
2024/03/04 04:50:10;;;;;;;;;;;;;;;17.01;46.57;100739.22;4958181;29;1316;-41
2024/03/04 04:52:36;;;;;;;;;;;;;;;16.03;47.57;100748.91;4958343;29;1325;-42
2024/03/04 04:55:01;;;;;;;;;;;;;;;15.69;46.87;100752.09;4957987;29;1288;-43
2024/03/04 04:57:27;;;;;;;;;;;;;;;16.53;47.63;100753.34;4954499;29;1545;-46
2024/03/04 04:59:53;;;;;;;;;;;;;;;16.38;47.54;100758.78;4958479;29;932;-39
2024/03/04 05:02:19;;;;;;;;;;;;;;;15.80;47.68;100753.97;4955949;29;1914;-51
2024/03/04 05:04:44;;;;;;;;;;;;;;;15.64;46.60;100759.50;4949017;29;1078;-45
2024/03/04 05:07:10;;;;;;;;;;;;;;;15.47;46.38;100764.16;4957058;29;1525;-45
2024/03/04 05:09:35;;;;;;;;;;;;;;;17.24;46.20;100755.25;4957695;29;955;-43
2024/03/04 05:12:01;;;;;;;;;;;;;;;16.69;46.92;100752.22;4958430;29;1078;-41
2024/03/04 05:14:26;;;;;;;;;;;;;;;17.21;45.31;100757.28;4958348;29;1054;-47
2024/03/04 05:16:52;;;;;;;;;;;;;;;16.81;46.13;100756.63;4957541;29;1145;-48
2024/03/04 05:19:17;;;;;;;;;;;;;;;16.43;47.14;100765.59;4955584;29;900;-43
2024/03/04 05:21:43;;;;;;;;;;;;;;;16.23;47.51;100767.88;4945377;29;1977;-45
2024/03/04 05:24:09;;;;;;;;;;;;;;;16.13;47.45;100770.34;4958480;29;1112;-43
2024/03/04 05:26:35;;;;;;;;;;;;;;;15.91;48.09;100763.84;4955366;29;1169;-45
2024/03/04 05:29:00;;;;;;;;;;;;;;;15.72;48.50;100770.44;4948495;29;1110;-45
2024/03/04 05:31:26;;;;;;;;;;;;;;;15.62;48.57;100764.91;4958350;29;1105;-43
2024/03/04 05:33:51;;;;;;;;;;;;;;;15.57;48.71;100772.34;4957850;28;1150;-43
2024/03/04 05:36:17;;;;;;;;;;;;;;;15.41;49.24;100769.88;4957599;29;1105;-44
2024/03/04 05:38:42;;;;;;;;;;;;;;;15.31;49.13;100769.66;4957705;28;1129;-44
2024/03/04 05:41:10;;;;;;;;;;;;;;;15.24;48.99;100779.81;4958111;29;1985;-43
2024/03/04 05:43:35;;;;;;;;;;;;;;;15.11;49.42;100776.28;4958002;29;1080;-45
2024/03/04 05:46:01;;;;;;;;;;;;;;;15.41;49.25;100775.19;4957975;29;1046;-43
2024/03/04 05:48:27;;;;;;;;;;;;;;;16.91;46.07;100780.72;4944723;29;1399;-45
2024/03/04 05:50:52;;;;;;;;;;;;;;;16.67;45.94;100784.19;4948379;29;1148;-45
2024/03/04 05:53:20;;;;;;;;;;;;;;;16.01;47.69;100782.66;4958228;29;1153;-43
2024/03/04 05:55:45;;;;;;;;;;;;;;;15.64;48.67;100791.31;4954222;29;2625;-43
2024/03/04 05:58:11;;;;;;;;;;;;;;;15.41;48.94;100789.28;4957899;29;1098;-40
2024/03/04 06:00:36;;;;;;;;;;;;;;;15.28;49.00;100791.91;4952331;29;1063;-45
2024/03/04 06:03:02;;;;;;;;;;;;;;;16.02;47.81;100793.16;4954108;29;1911;-43
2024/03/04 06:05:27;;;;;;;;;;;;;;;17.29;44.85;100794.78;4948319;29;1102;-46
2024/03/04 06:07:57;;;;;;;;;;;;;;;16.45;46.33;100803.50;4951709;29;1497;-46
2024/03/04 06:10:23;;;;;;;;;;;;;;;15.93;47.80;100798.25;4949999;29;1125;-43
2024/03/04 06:12:48;;;;;;;;;;;;;;;15.70;48.19;100798.03;4952519;29;1315;-44
2024/03/04 06:15:14;;;;;;;;;;;;;;;15.47;49.00;100801.28;4957355;29;1129;-43
2024/03/04 06:17:39;;;;;;;;;;;;;;;15.33;49.26;100801.38;4944224;29;1153;-42
2024/03/04 06:20:09;;;;;;;;;;;;;;;15.74;48.59;100795.06;4957498;29;1117;-47
2024/03/04 06:22:36;;;;;;;;;;;;;;;17.15;45.04;100798.47;4952145;29;1985;-46
2024/03/04 06:25:01;;;;;;;;;;;;;;;16.76;45.75;100809.25;4957332;29;1034;-43
2024/03/04 06:27:27;;;;;;;;;;;;;;;16.07;47.19;100802.59;4950648;29;2872;-45
2024/03/04 06:29:52;;;;;;;;;;;;;;;15.77;47.97;100801.94;4951358;29;1049;-45
2024/03/04 06:32:18;;;;;;;;;;;;;;;15.51;48.71;100793.97;4957424;29;1050;-43
2024/03/04 06:34:43;;;;;;;;;;;;;;;15.37;48.99;100797.53;4956275;29;1006;-42
2024/03/04 06:37:09;;;;;;;;;;;;;;;16.18;47.60;100800.06;4957491;29;1298;-46
2024/03/04 06:39:34;;;;;;;;;;;;;;;17.39;44.43;100794.94;4956210;29;1093;-43
2024/03/04 06:42:00;;;;;;;;;;;;;;;16.45;46.32;100799.03;4957808;29;1915;-46
2024/03/04 06:44:25;;;;;;;;;;;;;;;15.85;47.75;100791.66;4959687;28;990;-47
2024/03/04 06:46:51;;;;;;;;;;;;;;;15.69;48.41;100796.31;4961403;29;1181;-49
2024/03/04 06:49:16;;;;;;;;;;;;;;;15.43;49.07;100803.28;4961499;29;1153;-46
2024/03/04 06:51:42;;;;;;;;;;;;;;;15.26;49.14;100785.88;4953426;29;1145;-42
2024/03/04 06:54:08;;;;;;;;;;;;;;;16.35;47.19;100795.34;4960426;29;1170;-43
2024/03/04 06:56:33;;;;;;;;;;;;;;;17.47;44.21;100797.84;4960848;29;2564;-45
2024/03/04 06:59:01;;;;;;;;;;;;;;;16.55;45.99;100801.88;4960532;29;1096;-43
2024/03/04 07:01:27;;;;;;;;;;;;;;;15.93;47.70;100796.44;4959756;29;1914;-44
2024/03/04 07:03:56;;;;;;;;;;;;;;;15.70;48.09;100793.56;4960067;29;1129;-43
2024/03/04 07:06:21;;;;;;;;;;;;;;;15.51;48.43;100793.97;4960819;29;1045;-49
2024/03/04 07:08:47;;;;;;;;;;;;;;;15.59;48.54;100786.34;4960134;29;1094;-46
2024/03/04 07:11:13;;;;;;;;;;;;;;;17.08;45.04;100794.56;4960679;29;1100;-44
2024/03/04 07:13:38;;;;;;;;;;;;;;;16.98;44.91;100792.56;4960667;29;1097;-47
2024/03/04 07:16:07;;;;;;;;;;;;;;;16.20;47.06;100795.47;4951936;29;1053;-48
2024/03/04 07:18:32;;;;;;;;;;;;;;;15.83;47.80;100795.38;4959209;29;1042;-46
2024/03/04 07:20:58;;;;;;;;;;;;;;;15.61;48.67;100796.84;4960438;29;1906;-48
2024/03/04 07:23:24;;;;;;;;;;;;;;;15.52;48.69;100796.50;4960523;29;1148;-45
2024/03/04 07:25:49;;;;;;;;;;;;;;;15.39;49.40;100793.84;4943550;29;2664;-43
2024/03/04 07:28:14;;;;;;;;;;;;;;;16.91;45.62;100799.31;4960040;29;1057;-43
2024/03/04 07:30:40;;;;;;;;;;;;;;;16.95;45.21;100797.28;4960050;29;1099;-44
2024/03/04 07:33:08;;;;;;;;;;;;;;;16.12;47.05;100797.81;4946085;29;1176;-48
2024/03/04 07:35:34;;;;;;;;;;;;;;;15.73;48.12;100800.47;4958826;29;1178;-43
2024/03/04 07:38:00;;;;;;;;;;;;;;;15.56;48.61;100797.16;4959946;29;1061;-45
2024/03/04 07:40:25;;;;;;;;;;;;;;;15.43;48.82;100795.31;4959960;29;891;-46
2024/03/04 07:42:51;;;;;;;;;;;;;;;16.58;46.29;100796.31;4960128;29;1910;-45
2024/03/04 07:45:16;;;;;;;;;;;;;;;17.28;44.39;100792.25;4960093;29;1045;-49
2024/03/04 07:47:41;;;;;;;;;;;;;;;16.32;46.54;100799.06;4960043;29;1069;-46
2024/03/04 07:50:07;;;;;;;;;;;;;;;15.88;47.75;100799.38;4959766;29;1065;-48
2024/03/04 07:52:33;;;;;;;;;;;;;;;15.65;48.29;100800.97;4959156;29;1029;-44
2024/03/04 07:54:58;;;;;;;;;;;;;;;15.47;48.46;100803.94;4959392;28;1141;-44
2024/03/04 07:57:24;;;;;;;;;;;;;;;15.58;48.57;100803.19;4957745;29;2812;-43
2024/03/04 07:59:49;;;;;;;;;;;;;;;17.02;45.30;100804.69;4948446;29;1031;-45
2024/03/04 08:02:15;;;;;;;;;;;;;;;16.80;45.70;100805.41;4959564;29;1914;-47
2024/03/04 08:04:46;;;;;;;;;;;;;;;16.05;47.21;100812.50;4956183;29;854;-45
2024/03/04 08:07:12;;;;;;;;;;;;;;;15.79;48.09;100826.56;4958585;29;1318;-47
2024/03/04 08:09:39;;;;;;;;;;;;;;;15.54;48.69;100815.81;4951435;29;1098;-48
2024/03/04 08:12:06;;;;;;;;;;;;;;;15.34;48.86;100814.50;4955219;29;1054;-44
2024/03/04 08:14:31;;;;;;;;;;;;;;;16.58;46.44;100804.31;4959864;29;1030;-45
2024/03/04 08:16:57;;;;;;;;;;;;;;;17.35;44.24;100804.13;4949230;29;1149;-49
2024/03/04 08:19:22;;;;;;;;;;;;;;;16.38;46.36;100811.06;4959582;29;1061;-44
2024/03/04 08:21:48;;;;;;;;;;;;;;;15.94;47.73;100799.91;4959288;29;1911;-45
2024/03/04 08:24:13;;;;;;;;;;;;;;;15.71;48.12;100800.56;4959189;29;1021;-46
2024/03/04 08:26:39;;;;;;;;;;;;;;;15.46;48.93;100790.78;4958854;29;2536;-45
2024/03/04 08:29:04;;;;;;;;;;;;;;;15.91;48.07;100798.34;4954766;29;902;-49
2024/03/04 08:31:31;;;;;;;;;;;;;;;17.27;44.66;100790.56;4958373;29;1037;-48
2024/03/04 08:33:57;;;;;;;;;;;;;;;16.82;45.30;100787.53;4959101;29;1056;-44
2024/03/04 08:36:22;;;;;;;;;;;;;;;16.07;47.13;100799.94;4959431;29;1117;-44
2024/03/04 08:38:48;;;;;;;;;;;;;;;15.74;48.07;100799.50;4959157;29;1061;-47
2024/03/04 08:41:14;;;;;;;;;;;;;;;15.61;48.47;100797.69;4958525;28;1910;-47
2024/03/04 08:43:40;;;;;;;;;;;;;;;15.39;49.06;100798.28;4959033;29;1081;-44
2024/03/04 08:46:05;;;;;;;;;;;;;;;16.18;47.02;100794.75;4958507;29;1002;-49
2024/03/04 08:48:31;;;;;;;;;;;;;;;17.40;44.40;100799.28;4959093;28;1103;-48
2024/03/04 08:50:57;;;;;;;;;;;;;;;16.77;45.58;100797.66;4946042;29;1157;-47
2024/03/04 08:53:22;;;;;;;;;;;;;;;16.05;47.43;100794.75;4953217;29;1225;-47
2024/03/04 08:55:48;;;;;;;;;;;;;;;15.79;47.86;100794.72;4958658;29;2585;-46
2024/03/04 08:58:13;;;;;;;;;;;;;;;15.55;48.46;100795.44;4950497;29;1149;-49
2024/03/04 09:00:39;;;;;;;;;;;;;;;15.58;48.67;100800.53;4936993;29;1082;-46
2024/03/04 09:03:05;;;;;;;;;;;;;;;17.05;45.31;100798.28;4959024;29;1985;-47
2024/03/04 09:05:31;;;;;;;;;;;;;;;17.04;45.21;100804.56;4958729;29;1089;-47
2024/03/04 09:08:00;;;;;;;;;;;;;;;16.19;47.17;100809.72;4957768;28;1077;-49
2024/03/04 09:10:25;;;;;;;;;;;;;;;15.89;47.83;100797.59;4958590;29;1169;-50
2024/03/04 09:12:51;;;;;;;;;;;;;;;15.63;48.36;100810.84;4958491;29;1015;-48
2024/03/04 09:15:17;;;;;;;;;;;;;;;15.45;49.10;100808.47;4958288;29;1013;-47
2024/03/04 09:17:42;;;;;;;;;;;;;;;16.12;47.74;100798.66;4958158;29;884;-46
2024/03/04 09:20:08;;;;;;;;;;;;;;;17.38;44.69;100801.22;4956384;29;1089;-45
2024/03/04 09:22:34;;;;;;;;;;;;;;;16.74;45.62;100813.81;4947928;29;1911;-45
2024/03/04 09:25:00;;;;;;;;;;;;;;;16.12;47.43;100805.78;4957965;29;1094;-45
2024/03/04 09:27:25;;;;;;;;;;;;;;;15.86;47.89;100801.31;4958601;29;2721;-45
2024/03/04 09:29:50;;;;;;;;;;;;;;;15.65;48.43;100791.22;4957722;29;1512;-45
2024/03/04 09:32:16;;;;;;;;;;;;;;;15.52;48.88;100785.91;4958250;29;1117;-48
2024/03/04 09:34:42;;;;;;;;;;;;;;;15.35;49.03;100784.38;4955677;29;1047;-46
2024/03/04 09:37:07;;;;;;;;;;;;;;;16.75;46.13;100786.28;4951754;29;1128;-44
2024/03/04 09:39:33;;;;;;;;;;;;;;;17.07;45.02;100793.69;4952803;29;1118;-45
2024/03/04 09:42:00;;;;;;;;;;;;;;;16.21;47.23;100791.88;4952597;29;1915;-44
2024/03/04 09:44:27;;;;;;;;;;;;;;;15.87;47.94;100794.19;4950660;29;1038;-47
2024/03/04 09:46:53;;;;;;;;;;;;;;;15.70;48.48;100795.38;4958031;29;1093;-45
2024/03/04 09:49:18;;;;;;;;;;;;;;;15.43;48.86;100784.72;4955031;29;1110;-45
2024/03/04 09:51:44;;;;;;;;;;;;;;;16.43;47.03;100785.03;4946041;29;1204;-46
2024/03/04 09:54:09;;;;;;;;;;;;;;;17.53;44.21;100771.75;4940204;29;1195;-48
2024/03/04 09:56:35;;;;;;;;;;;;;;;16.62;45.98;100776.56;4940798;29;2775;-46
2024/03/04 09:59:01;;;;;;;;;;;;;;;16.08;47.50;100773.28;4957746;29;1346;-46
2024/03/04 10:01:27;;;;;;;;;;;;;;;15.80;47.90;100764.59;4957785;29;1977;-47
2024/03/04 10:03:52;;;;;;;;;;;;;;;15.63;48.38;100774.56;4937965;29;1391;-44
2024/03/04 10:06:18;;;;;;;;;;;;;;;15.42;49.17;100761.84;4935337;29;1110;-46
2024/03/04 10:08:43;;;;;;;;;;;;;;;15.45;49.33;100757.28;4949817;29;1149;-45
2024/03/04 10:11:09;;;;;;;;;;;;;;;16.93;45.73;100754.88;4957583;29;1233;-46
2024/03/04 10:13:34;;;;;;;;;;;;;;;16.97;45.01;100743.03;4948603;29;1106;-45
2024/03/04 10:16:00;;;;;;;;;;;;;;;16.25;46.88;100752.66;4954106;29;1130;-45
2024/03/04 10:18:25;;;;;;;;;;;;;;;15.87;48.18;100759.69;4957385;28;936;-43
2024/03/04 10:20:55;;;;;;;;;;;;;;;15.65;48.63;100750.59;4961415;28;1153;-44
2024/03/04 10:23:23;;;;;;;;;;;;;;;15.44;49.32;100756.41;4961451;28;1993;-45
2024/03/04 10:26:08;;;;;;;;;;;;;;;15.58;48.99;100749.31;4957414;29;2419;-47
2024/03/04 10:28:41;;;;;;;;;;;;;;;17.19;45.42;100745.91;4960342;29;1265;-46
2024/03/04 10:31:10;;;;;;;;;;;;;;;16.77;45.82;100739.22;4944444;29;1074;-48
2024/03/04 10:33:35;;;;;;;;;;;;;;;16.10;47.37;100734.22;4948658;29;1141;-47
2024/03/04 10:36:22;;;;;;;;;;;;;;;15.82;48.21;100730.00;4959348;29;1105;-46
2024/03/04 10:38:48;;;;;;;;;;;;;;;15.54;48.93;100725.69;4958600;29;884;-45
2024/03/04 10:41:17;;;;;;;;;;;;;;;15.49;49.18;100732.25;4960749;29;1899;-46
2024/03/04 10:43:46;;;;;;;;;;;;;;;16.99;45.86;100735.81;4961443;29;1196;-48
2024/03/04 10:46:11;;;;;;;;;;;;;;;16.94;45.45;100723.81;4960001;29;990;-46
2024/03/04 10:48:37;;;;;;;;;;;;;;;16.15;47.46;100732.09;4949409;29;1081;-44
2024/03/04 10:51:03;;;;;;;;;;;;;;;15.83;47.86;100723.75;4960946;29;1037;-47
2024/03/04 10:53:29;;;;;;;;;;;;;;;15.63;48.75;100724.16;4960118;29;1123;-45
2024/03/04 10:55:55;;;;;;;;;;;;;;;15.48;48.99;100715.47;4958048;29;2508;-47
2024/03/04 10:58:20;;;;;;;;;;;;;;;16.01;48.21;100727.78;4943821;29;1209;-45
2024/03/04 11:00:46;;;;;;;;;;;;;;;17.33;44.94;100718.28;4943943;29;971;-44
2024/03/04 11:03:15;;;;;;;;;;;;;;;16.66;45.89;100718.78;4948138;29;1910;-45
2024/03/04 11:05:42;;;;;;;;;;;;;;;16.05;47.72;100727.56;4960590;29;1037;-45
2024/03/04 11:08:18;;;;;;;;;;;;;;;15.77;48.32;100730.31;4960131;29;1097;-50
2024/03/04 11:10:50;;;;;;;;;;;;;;;15.56;48.78;100728.22;4960468;29;1125;-44
2024/03/04 11:13:39;;;;;;;;;;;;;;;15.48;49.43;100719.94;4960754;29;1045;-44
2024/03/04 11:16:16;;;;;;;;;;;;;;;17.11;45.45;100726.09;4924139;29;1126;-46
2024/03/04 11:18:48;;;;;;;;;;;;;;;16.79;45.84;100720.50;4942615;29;1684;-49
2024/03/04 11:21:13;;;;;;;;;;;;;;;16.10;47.42;100720.97;4960035;29;1980;-46
2024/03/04 11:23:39;;;;;;;;;;;;;;;15.83;48.04;100716.63;4943537;29;995;-44
2024/03/04 11:26:05;;;;;;;;;;;;;;;15.65;48.58;100710.81;4959072;29;2486;-49
2024/03/04 11:28:31;;;;;;;;;;;;;;;15.43;49.03;100694.59;4960248;29;1407;-45
2024/03/04 11:30:57;;;;;;;;;;;;;;;16.02;47.98;100691.47;4958031;28;952;-46
2024/03/04 11:33:36;;;;;;;;;;;;;;;17.31;44.96;100693.63;4960486;29;1100;-46
2024/03/04 11:36:02;;;;;;;;;;;;;;;16.48;46.34;100692.59;4958505;29;1137;-46
2024/03/04 11:38:28;;;;;;;;;;;;;;;15.99;47.55;100691.69;4953548;29;1284;-47
2024/03/04 11:40:57;;;;;;;;;;;;;;;15.67;48.63;100679.72;4960250;29;1117;-43
2024/03/04 11:43:41;;;;;;;;;;;;;;;15.55;48.87;100681.44;4952603;29;1915;-50
2024/03/04 11:46:13;;;;;;;;;;;;;;;15.32;49.55;100680.38;4957261;29;1225;-45
2024/03/04 11:48:39;;;;;;;;;;;;;;;16.23;47.55;100685.59;4960165;29;1022;-48
2024/03/04 11:51:05;;;;;;;;;;;;;;;17.40;44.59;100689.41;4959773;29;1387;-45
2024/03/04 11:53:31;;;;;;;;;;;;;;;16.51;46.54;100678.25;4955959;28;1105;-45
2024/03/04 11:55:56;;;;;;;;;;;;;;;15.98;47.57;100679.38;4955249;29;2451;-45
2024/03/04 11:58:22;;;;;;;;;;;;;;;15.67;48.67;100688.53;4953977;29;1252;-45
2024/03/04 12:00:51;;;;;;;;;;;;;;;15.49;49.15;100692.47;4959848;29;1042;-44
2024/03/04 12:03:16;;;;;;;;;;;;;;;15.41;49.26;100679.75;4959722;29;1915;-43
2024/03/04 12:05:42;;;;;;;;;;;;;;;16.00;47.74;100680.97;4955788;29;1073;-44
2024/03/04 12:08:08;;;;;;;;;;;;;;;17.32;44.97;100674.03;4955469;29;1074;-45
2024/03/04 12:10:34;;;;;;;;;;;;;;;16.75;45.68;100677.38;4959914;29;1041;-45
2024/03/04 12:13:00;;;;;;;;;;;;;;;16.11;47.65;100660.78;4942609;29;1031;-49
2024/03/04 12:15:25;;;;;;;;;;;;;;;15.81;48.06;100660.19;4942542;29;1061;-48
2024/03/04 12:17:51;;;;;;;;;;;;;;;15.51;48.65;100659.63;4959141;29;1116;-49
2024/03/04 12:20:17;;;;;;;;;;;;;;;15.36;49.10;100653.56;4959273;29;1061;-48
2024/03/04 12:22:42;;;;;;;;;;;;;;;16.18;47.78;100650.56;4932221;29;1910;-46
2024/03/04 12:25:09;;;;;;;;;;;;;;;17.38;44.64;100658.47;4959421;29;1047;-47
2024/03/04 12:27:35;;;;;;;;;;;;;;;16.71;45.65;100650.22;4952031;29;1059;-45
2024/03/04 12:30:09;;;;;;;;;;;;;;;16.07;47.43;100641.56;4953632;29;1161;-45
2024/03/04 12:32:35;;;;;;;;;;;;;;;15.83;48.39;100644.19;4948352;29;1157;-47
2024/03/04 12:35:01;;;;;;;;;;;;;;;15.67;48.61;100647.91;4939770;29;1097;-47
2024/03/04 12:37:29;;;;;;;;;;;;;;;15.46;48.82;100637.03;4950381;29;1108;-45
2024/03/04 12:39:56;;;;;;;;;;;;;;;16.33;47.16;100641.47;4944992;29;1081;-47
2024/03/04 12:42:22;;;;;;;;;;;;;;;17.51;44.45;100646.88;4951480;28;2005;-46